Time;durP1;ratioP1;P1;durP2;ratioP2;P2;SDS_P1;SDS_P2;PMS_P1;PMS_P2;Temp;Humidity;BMP_temperature;BMP_pressure;BME280_temperature;BME280_humidity;BME280_pressure;Samples;Min_cycle;Max_cycle;Signal;HPM_P1;HPM_P2
2023/10/18 00:00:28;;;;;;;5.07;2.63;;;;;;;12.34;78.35;97243.34;5007976;28;20384;-69
2023/10/18 00:02:55;;;;;;;6.60;3.07;;;;;;;12.18;79.16;97236.28;5008914;28;20205;-73
2023/10/18 00:05:24;;;;;;;3.33;2.60;;;;;;;12.15;78.92;97231.25;5007612;28;20200;-71
2023/10/18 00:07:57;;;;;;;4.10;2.63;;;;;;;12.22;79.08;97226.59;5008991;28;20199;-69
2023/10/18 00:10:26;;;;;;;3.20;2.53;;;;;;;12.28;78.64;97223.72;5008086;28;20860;-71
2023/10/18 00:12:55;;;;;;;2.53;2.33;;;;;;;12.17;79.77;97223.41;5008344;28;20232;-68
2023/10/18 00:15:23;;;;;;;7.47;2.80;;;;;;;12.26;79.21;97217.75;5009158;28;20233;-74
2023/10/18 00:17:50;;;;;;;4.27;2.80;;;;;;;12.33;78.93;97213.91;5007582;28;20191;-71
2023/10/18 00:20:25;;;;;;;3.63;2.70;;;;;;;12.21;78.98;97212.78;5008656;28;20295;-73
2023/10/18 00:22:54;;;;;;;4.77;2.57;;;;;;;12.24;79.06;97214.41;5007605;28;20192;-71
2023/10/18 00:25:21;;;;;;;3.33;2.70;;;;;;;12.15;78.71;97220.03;5008474;28;20215;-69
2023/10/18 00:27:49;;;;;;;3.40;2.70;;;;;;;12.13;78.65;97211.47;5008015;28;20206;-68
2023/10/18 00:30:19;;;;;;;3.03;2.40;;;;;;;12.25;78.88;97208.28;5008182;28;20613;-70
2023/10/18 00:32:47;;;;;;;3.33;2.53;;;;;;;12.33;78.72;97198.34;5008606;28;20207;-69
2023/10/18 00:35:20;;;;;;;6.07;2.93;;;;;;;12.25;78.60;97205.69;5009563;28;20234;-69
2023/10/18 00:37:54;;;;;;;5.87;2.77;;;;;;;12.26;78.44;97194.38;5012262;28;20192;-74
2023/10/18 00:40:35;;;;;;;4.13;2.50;;;;;;;12.26;78.71;97204.78;5011041;28;20304;-71
2023/10/18 00:43:16;;;;;;;3.23;2.80;;;;;;;12.24;78.90;97217.00;5016078;28;20188;-71
2023/10/18 00:45:47;;;;;;;3.43;2.73;;;;;;;12.09;78.74;97210.81;5032027;28;20246;-68
2023/10/18 00:48:28;;;;;;;3.60;2.50;;;;;;;11.96;79.69;97220.09;5029414;28;20757;-69
2023/10/18 00:50:57;;;;;;;5.27;3.43;;;;;;;12.12;79.46;97214.97;5031902;28;20740;-69
2023/10/18 00:53:25;;;;;;;5.00;2.50;;;;;;;12.14;79.41;97210.53;5029580;28;20194;-68
2023/10/18 00:55:59;;;;;;;2.53;2.33;;;;;;;12.11;79.58;97213.31;5031622;28;20233;-67
2023/10/18 00:58:29;;;;;;;6.20;2.80;;;;;;;11.98;79.90;97217.41;5031334;28;20197;-67
2023/10/18 01:01:10;;;;;;;5.30;2.93;;;;;;;11.86;80.12;97212.81;5030649;28;20195;-69
2023/10/18 01:03:41;;;;;;;4.37;2.60;;;;;;;11.95;79.73;97214.97;5030240;28;20192;-72
2023/10/18 01:06:21;;;;;;;5.23;2.27;;;;;;;11.97;79.86;97207.97;5029339;28;20723;-68
2023/10/18 01:08:50;;;;;;;6.00;2.37;;;;;;;11.94;79.91;97215.88;5031566;28;20197;-69
2023/10/18 01:11:26;;;;;;;3.77;2.40;;;;;;;11.86;80.02;97208.47;5031188;28;20208;-69
2023/10/18 01:13:55;;;;;;;3.90;2.63;;;;;;;11.70;80.82;97194.56;5028773;28;20263;-69
2023/10/18 01:16:23;;;;;;;3.53;2.70;;;;;;;11.67;80.46;97181.72;5031332;28;20220;-70
2023/10/18 01:18:54;;;;;;;4.27;3.00;;;;;;;11.98;79.65;97207.88;5028708;28;20224;-70
2023/10/18 01:21:22;;;;;;;3.47;2.70;;;;;;;11.77;80.27;97200.25;5031742;28;20573;-72
2023/10/18 01:23:54;;;;;;;4.30;2.70;;;;;;;11.83;80.64;97192.22;5030341;28;20204;-73
2023/10/18 01:26:23;;;;;;;5.57;3.60;;;;;;;12.00;80.24;97208.63;5031054;28;20190;-76
2023/10/18 01:28:54;;;;;;;5.57;3.80;;;;;;;11.80;82.25;97207.91;5030900;28;20238;-76
2023/10/18 01:31:22;;;;;;;5.60;3.60;;;;;;;11.75;82.49;97204.69;5030273;28;20208;-75
2023/10/18 01:33:51;;;;;;;5.53;3.27;;;;;;;11.59;82.68;97188.16;5031007;28;20197;-73
2023/10/18 01:36:21;;;;;;;8.43;4.00;;;;;;;11.59;83.05;97201.13;5030045;28;20727;-76
2023/10/18 01:38:52;;;;;;;5.93;3.50;;;;;;;11.56;83.20;97198.69;5029502;28;20253;-74
2023/10/18 01:41:27;;;;;;;5.50;3.67;;;;;;;11.56;83.61;97204.69;5030352;28;20193;-73
2023/10/18 01:43:56;;;;;;;6.03;3.87;;;;;;;11.33;84.09;97174.63;5029054;28;20198;-74
2023/10/18 01:46:23;;;;;;;5.40;3.53;;;;;;;11.53;83.71;97206.59;5029377;28;20199;-75
2023/10/18 01:48:51;;;;;;;7.03;3.90;;;;;;;11.65;83.41;97209.44;5011782;28;20300;-75
2023/10/18 01:51:19;;;;;;;5.03;3.90;;;;;;;11.27;84.65;97207.81;5030833;28;20207;-70
2023/10/18 01:53:47;;;;;;;4.57;3.73;;;;;;;11.40;84.18;97207.16;5029449;28;20290;-75
2023/10/18 01:56:17;;;;;;;5.33;4.40;;;;;;;11.07;84.93;97190.56;5031150;28;20718;-75
2023/10/18 01:58:46;;;;;;;5.47;4.23;;;;;;;10.91;85.17;97202.53;5030239;28;20689;-74
2023/10/18 02:01:16;;;;;;;6.37;3.60;;;;;;;10.96;86.05;97191.97;5028922;28;20202;-76
2023/10/18 02:03:44;;;;;;;8.93;4.53;;;;;;;11.11;85.89;97199.88;5030734;28;20252;-75
2023/10/18 02:06:15;;;;;;;7.37;4.67;;;;;;;11.15;85.15;97204.00;5028083;28;20200;-74
2023/10/18 02:08:43;;;;;;;5.70;4.13;;;;;;;11.36;84.37;97207.38;5029319;28;20196;-74
2023/10/18 02:11:11;;;;;;;6.47;4.30;;;;;;;11.33;84.12;97197.97;5029622;28;20195;-75
2023/10/18 02:13:39;;;;;;;6.17;3.83;;;;;;;11.23;84.10;97188.94;5030177;28;20303;-74
2023/10/18 02:16:09;;;;;;;8.00;4.17;;;;;;;11.41;84.25;97208.88;5029922;28;20233;-73
2023/10/18 02:18:36;;;;;;;6.50;4.33;;;;;;;11.40;84.71;97204.56;5012084;28;20183;-76
2023/10/18 02:21:23;;;;;;;7.40;4.53;;;;;;;11.33;84.90;97200.56;5029253;28;20276;-74
2023/10/18 02:23:51;;;;;;;4.37;3.30;;;;;;;11.42;83.73;97192.38;5029187;28;20554;-76
2023/10/18 02:29:05;;;;;;;5.67;3.93;;;;;;;11.43;84.10;97194.06;5029145;28;20232;-69
2023/10/18 02:31:33;;;;;;;4.90;3.30;;;;;;;11.57;83.95;97192.56;5028488;28;20216;-75
2023/10/18 02:34:04;;;;;;;4.63;3.40;;;;;;;11.68;83.51;97187.75;5029921;28;20189;-74
2023/10/18 02:36:55;;;;;;;4.60;3.70;;;;;;;11.75;83.18;97195.16;5027640;28;20251;-73
2023/10/18 02:39:23;;;;;;;4.17;3.70;;;;;;;11.71;82.58;97190.19;5029851;28;20611;-76
2023/10/18 02:41:54;;;;;;;4.87;3.37;;;;;;;11.68;82.89;97192.94;5028931;28;20207;-75
2023/10/18 02:44:23;;;;;;;4.70;3.50;;;;;;;11.61;83.45;97201.88;5029234;28;20753;-75
2023/10/18 02:46:55;;;;;;;5.40;3.73;;;;;;;11.46;83.80;97209.47;5029878;28;20643;-73
2023/10/18 02:49:23;;;;;;;6.10;4.40;;;;;;;11.54;83.45;97209.09;5027118;28;20201;-71
2023/10/18 02:51:50;;;;;;;6.47;4.67;;;;;;;11.56;83.50;97215.06;5029785;28;20205;-70
2023/10/18 02:54:22;;;;;;;6.40;4.90;;;;;;;11.37;83.96;97212.47;5028384;28;20205;-73
2023/10/18 02:56:52;;;;;;;6.07;4.50;;;;;;;11.45;84.14;97213.00;5029069;28;20237;-73
2023/10/18 02:59:21;;;;;;;5.50;4.50;;;;;;;11.27;84.60;97213.81;5028837;28;20272;-73
2023/10/18 03:01:49;;;;;;;7.00;4.17;;;;;;;11.38;83.99;97203.81;5029246;28;20847;-74
2023/10/18 03:04:18;;;;;;;7.13;4.43;;;;;;;11.25;84.21;97207.03;5029200;28;20187;-69
2023/10/18 03:06:45;;;;;;;7.90;5.03;;;;;;;11.21;84.24;97197.72;5028290;28;20193;-75
2023/10/18 03:12:01;;;;;;;6.33;5.03;;;;;;;11.22;84.12;97210.59;5008501;28;20203;-75
2023/10/18 03:14:39;;;;;;;7.60;4.97;;;;;;;11.10;85.30;97189.59;5008189;28;20228;-73
2023/10/18 03:17:22;;;;;;;6.13;4.57;;;;;;;11.08;84.70;97184.47;4995562;28;20710;-72
2023/10/18 03:19:51;;;;;;;5.73;4.83;;;;;;;10.90;85.79;97187.06;4999889;28;20209;-68
2023/10/18 03:22:22;;;;;;;7.93;4.90;;;;;;;10.92;85.55;97196.41;5009399;28;20667;-68
2023/10/18 03:24:53;;;;;;;5.93;4.47;;;;;;;11.10;84.96;97200.81;4998614;28;20198;-71
2023/10/18 03:27:21;;;;;;;7.03;5.00;;;;;;;10.98;85.35;97188.41;5006152;28;20252;-72
2023/10/18 03:29:47;;;;;;;6.90;4.67;;;;;;;11.25;85.38;97194.91;4994567;28;20228;-70
2023/10/18 03:32:15;;;;;;;6.17;4.27;;;;;;;11.43;84.79;97186.28;4989445;28;20198;-71
2023/10/18 03:34:42;;;;;;;6.43;4.57;;;;;;;11.60;83.84;97182.06;5007939;28;20207;-68
2023/10/18 03:37:18;;;;;;;5.77;4.80;;;;;;;11.60;83.87;97184.66;4991858;28;20231;-69
2023/10/18 03:39:49;;;;;;;4.30;3.67;;;;;;;11.67;82.95;97186.91;4996147;28;20245;-69
2023/10/18 03:42:32;;;;;;;6.33;4.33;;;;;;;11.71;83.18;97187.59;4999464;28;20673;-70
2023/10/18 03:45:01;;;;;;;4.93;3.77;;;;;;;11.73;82.68;97178.81;4999362;28;20251;-68
2023/10/18 03:47:36;;;;;;;8.17;4.20;;;;;;;11.83;81.93;97187.84;4999366;28;20210;-70
2023/10/18 03:50:15;;;;;;;4.50;4.10;;;;;;;11.73;82.88;97172.78;4997005;28;20196;-71
2023/10/18 03:52:50;;;;;;;5.10;3.90;;;;;;;11.83;82.70;97187.03;5003779;28;20196;-69
2023/10/18 03:55:17;;;;;;;5.93;4.00;;;;;;;11.88;81.89;97188.47;4995530;28;20259;-70
2023/10/18 03:57:45;;;;;;;5.13;4.27;;;;;;;11.77;81.77;97182.09;5009196;28;20260;-68
2023/10/18 04:00:56;;;;;;;5.30;3.97;;;;;;;11.80;82.31;97181.97;5008338;28;20198;-70
2023/10/18 04:03:09;;;;;;;5.27;4.03;;;;;;;11.74;82.25;97177.94;5005124;28;20563;-68
2023/10/18 04:05:44;;;;;;;9.97;6.90;;;;;;;11.74;82.15;97171.88;5007398;28;20263;-70
2023/10/18 04:08:17;;;;;;;6.50;4.30;;;;;;;11.67;82.37;97171.34;5004701;28;20303;-69
2023/10/18 04:10:46;;;;;;;4.97;4.03;;;;;;;11.67;82.80;97180.88;5004866;28;20229;-69
2023/10/18 04:13:14;;;;;;;4.70;3.70;;;;;;;11.66;83.00;97179.16;5007472;28;20243;-71
2023/10/18 04:15:57;;;;;;;6.90;4.40;;;;;;;11.62;82.89;97167.25;4999309;28;20814;-74
2023/10/18 04:18:29;;;;;;;7.27;3.97;;;;;;;11.58;83.75;97161.34;4999544;28;20270;-74
2023/10/18 04:20:59;;;;;;;5.13;4.63;;;;;;;11.57;83.89;97164.88;5002713;28;20193;-71
2023/10/18 04:23:27;;;;;;;6.37;4.60;;;;;;;11.59;83.38;97159.63;4988823;28;20219;-74
2023/10/18 04:25:58;;;;;;;10.27;4.77;;;;;;;11.14;84.54;97139.28;5002656;28;20204;-67
2023/10/18 04:28:28;;;;;;;5.00;4.27;;;;;;;11.11;84.62;97119.53;5008209;28;20200;-74
2023/10/18 04:31:01;;;;;;;8.13;5.07;;;;;;;11.36;84.96;97160.69;5008355;28;20198;-76
2023/10/18 04:33:36;;;;;;;7.13;5.33;;;;;;;11.23;84.83;97160.44;5007223;28;20228;-73
2023/10/18 04:36:14;;;;;;;9.20;6.37;;;;;;;11.29;84.15;97160.13;5011259;28;20282;-76
2023/10/18 04:38:44;;;;;;;7.80;5.87;;;;;;;11.52;84.47;97166.03;4997856;28;20700;-70
2023/10/18 04:46:59;;;;;;;10.70;5.57;;;;;;;11.59;83.71;97177.78;4992156;28;20210;-71
2023/10/18 04:49:38;;;;;;;8.13;5.83;;;;;;;11.65;82.42;97175.72;4991718;28;20188;-74
2023/10/18 04:52:08;;;;;;;7.97;5.47;;;;;;;11.54;83.00;97169.38;5007113;28;20260;-74
2023/10/18 04:54:41;;;;;;;8.53;7.63;;;;;;;11.73;82.03;97190.94;5005479;28;20669;-75
2023/10/18 04:57:12;;;;;;;9.90;5.67;;;;;;;11.75;81.75;97189.13;5008168;28;20244;-74
2023/10/18 04:59:45;;;;;;;7.37;5.27;;;;;;;11.72;81.59;97191.88;5007031;28;20603;-75
2023/10/18 05:02:25;;;;;;;7.07;5.40;;;;;;;11.77;81.44;97192.47;5008262;28;20624;-74
2023/10/18 05:04:54;;;;;;;6.87;5.50;;;;;;;11.70;81.30;97193.72;5007296;28;20195;-72
2023/10/18 05:07:38;;;;;;;11.67;8.40;;;;;;;11.66;81.53;97199.94;5007736;28;20227;-70
2023/10/18 05:10:18;;;;;;;9.70;6.67;;;;;;;11.32;82.09;97201.50;5006777;28;20199;-74
2023/10/18 05:13:10;;;;;;;8.07;6.00;;;;;;;11.34;82.28;97204.84;4990459;28;20244;-72
2023/10/18 05:15:37;;;;;;;7.47;5.43;;;;;;;11.52;82.49;97204.94;5007225;28;20309;-72
2023/10/18 05:18:05;;;;;;;6.90;6.00;;;;;;;11.64;81.73;97212.13;5007716;28;20202;-75
2023/10/18 05:20:46;;;;;;;8.33;5.47;;;;;;;11.82;81.32;97206.09;5008607;28;20498;-73
2023/10/18 05:23:22;;;;;;;11.00;7.07;;;;;;;11.80;80.78;97192.34;5012346;28;20193;-68
2023/10/18 05:28:47;;;;;;;10.17;7.30;;;;;;;11.82;81.09;97213.88;5018104;28;20190;-74
2023/10/18 05:34:18;;;;;;;7.07;5.00;;;;;;;12.04;79.96;97223.16;5014266;28;20221;-77
2023/10/18 05:42:13;;;;;;;12.80;6.93;;;;;;;12.14;80.49;97231.31;4991436;28;20269;-74
2023/10/18 05:44:41;;;;;;;8.83;5.70;;;;;;;12.35;79.57;97238.06;4993622;28;20198;-76
2023/10/18 05:47:08;;;;;;;8.50;6.13;;;;;;;12.40;79.32;97245.63;5010101;28;20185;-78
2023/10/18 05:49:41;;;;;;;12.30;6.97;;;;;;;12.35;79.37;97217.28;5010839;28;20201;-70
2023/10/18 05:54:38;;;;;;;10.67;7.70;;;;;;;12.60;78.65;97240.28;5011305;28;20189;-70
2023/10/18 05:57:08;;;;;;;12.17;9.30;;;;;;;12.67;78.17;97250.28;5012169;28;20230;-70
2023/10/18 05:59:35;;;;;;;14.37;9.60;;;;;;;12.40;78.80;97256.88;5011644;28;20550;-71
2023/10/18 06:02:09;;;;;;;11.03;7.33;;;;;;;12.33;79.25;97259.81;5012829;28;20212;-77
2023/10/18 06:04:43;;;;;;;13.97;8.33;;;;;;;12.41;79.44;97263.72;5010869;28;20661;-69
2023/10/18 06:07:10;;;;;;;14.40;9.17;;;;;;;12.40;79.75;97269.00;5010539;28;20700;-71
2023/10/18 06:09:46;;;;;;;16.07;9.53;;;;;;;12.48;80.33;97270.31;5009350;28;20600;-72
2023/10/18 06:12:21;;;;;;;18.40;11.20;;;;;;;12.57;79.40;97258.63;4990933;28;20292;-73
2023/10/18 06:14:52;;;;;;;25.60;13.70;;;;;;;12.57;79.82;97275.03;4990459;28;20235;-70
2023/10/18 06:17:22;;;;;;;26.47;20.33;;;;;;;12.64;79.33;97266.03;5007900;28;20227;-71
2023/10/18 06:19:52;;;;;;;31.00;22.67;;;;;;;12.77;78.77;97272.28;5008699;28;20281;-71
2023/10/18 06:22:28;;;;;;;25.97;19.23;;;;;;;12.32;78.80;97183.69;5008049;28;20189;-75
2023/10/18 06:25:00;;;;;;;34.53;18.80;;;;;;;12.76;79.34;97275.78;5007622;28;20201;-70
2023/10/18 06:27:28;;;;;;;24.73;14.93;;;;;;;12.69;78.76;97235.47;4990589;28;20277;-72
2023/10/18 06:29:55;;;;;;;25.87;15.40;;;;;;;13.13;78.13;97279.16;4989485;28;20214;-70
2023/10/18 06:32:22;;;;;;;23.47;13.40;;;;;;;13.23;77.31;97280.34;5008295;28;20259;-70
2023/10/18 06:34:55;;;;;;;19.43;8.13;;;;;;;13.24;77.09;97271.63;5000839;28;20189;-69
2023/10/18 06:37:24;;;;;;;20.77;11.13;;;;;;;13.39;76.35;97276.03;4995776;28;20326;-75
2023/10/18 06:39:58;;;;;;;24.60;11.97;;;;;;;13.18;76.31;97227.72;5004090;28;20187;-76
2023/10/18 06:42:27;;;;;;;23.37;10.13;;;;;;;13.69;75.27;97280.41;5007603;28;20194;-71
2023/10/18 06:44:55;;;;;;;19.43;10.80;;;;;;;13.47;76.73;97272.09;5007798;28;20214;-71
2023/10/18 06:47:30;;;;;;;20.73;10.27;;;;;;;13.36;76.67;97271.81;5005581;28;20674;-73
2023/10/18 06:49:59;;;;;;;22.77;12.30;;;;;;;13.52;76.51;97282.22;5007076;28;20194;-68
2023/10/18 06:52:52;;;;;;;21.67;10.43;;;;;;;13.78;75.12;97282.53;5027176;28;20224;-74
2023/10/18 06:55:35;;;;;;;20.70;9.77;;;;;;;13.88;74.12;97288.91;5027034;28;20194;-70
2023/10/18 07:00:53;;;;;;;16.17;8.07;;;;;;;13.74;74.03;97293.19;5026468;28;20553;-72
2023/10/18 07:03:33;;;;;;;17.10;10.27;;;;;;;13.86;73.05;97293.38;5027152;28;20210;-78
2023/10/18 07:06:04;;;;;;;14.30;7.90;;;;;;;14.04;72.16;97290.66;5026651;28;20183;-70
2023/10/18 07:08:39;;;;;;;14.23;8.40;;;;;;;14.25;72.28;97290.31;5025000;28;20236;-73
2023/10/18 07:11:16;;;;;;;21.10;12.10;;;;;;;13.69;73.15;97276.97;5027189;28;20217;-77
2023/10/18 07:13:54;;;;;;;21.10;11.50;;;;;;;13.89;73.77;97297.53;5026426;28;20342;-70
2023/10/18 07:19:24;;;;;;;16.70;8.93;;;;;;;14.17;71.58;97295.13;5026520;28;20286;-76
2023/10/18 07:21:54;;;;;;;17.97;8.67;;;;;;;14.22;70.60;97298.28;5025420;28;20222;-70
2023/10/18 07:24:21;;;;;;;15.03;7.20;;;;;;;14.24;70.30;97288.63;5026536;28;20676;-73
2023/10/18 07:26:48;;;;;;;10.20;6.00;;;;;;;14.29;69.84;97302.28;5025738;28;20621;-71
2023/10/18 07:29:16;;;;;;;12.03;6.23;;;;;;;14.32;69.82;97302.06;5026599;28;20206;-70
2023/10/18 07:31:46;;;;;;;8.47;5.67;;;;;;;14.06;70.49;97284.44;5025619;28;20202;-72
2023/10/18 07:34:29;;;;;;;19.90;6.90;;;;;;;14.28;71.11;97284.09;5026570;28;20255;-72
2023/10/18 07:36:57;;;;;;;15.47;6.90;;;;;;;14.39;70.54;97286.94;5026207;28;20292;-71
2023/10/18 07:39:24;;;;;;;14.60;6.13;;;;;;;14.31;70.24;97282.19;5025840;28;20269;-70
2023/10/18 07:41:52;;;;;;;15.07;8.57;;;;;;;14.13;70.41;97264.97;5025853;28;20217;-71
2023/10/18 07:44:19;;;;;;;13.60;9.37;;;;;;;13.96;70.25;97220.78;5025197;28;20397;-71
2023/10/18 07:46:46;;;;;;;15.33;7.17;;;;;;;14.27;70.03;97262.41;5023722;28;20289;-73
2023/10/18 07:49:14;;;;;;;21.07;7.93;;;;;;;14.48;70.14;97271.66;4994478;28;20195;-74
2023/10/18 07:51:48;;;;;;;16.67;7.73;;;;;;;14.25;70.20;97253.84;4999037;28;20199;-71
2023/10/18 07:54:17;;;;;;;492.87;437.23;;;;;;;14.49;69.50;97275.91;5006203;28;20268;-73
2023/10/18 07:56:54;;;;;;;302.40;245.70;;;;;;;14.36;69.95;97256.69;5005713;28;20230;-74
2023/10/18 07:59:29;;;;;;;43.43;12.07;;;;;;;14.66;69.32;97273.19;5006893;28;20195;-70
2023/10/18 08:04:43;;;;;;;35.13;13.20;;;;;;;15.07;67.74;97270.72;5006041;28;20228;-73
2023/10/18 08:07:15;;;;;;;32.33;11.67;;;;;;;14.44;68.94;97270.16;5005692;28;20195;-75
2023/10/18 08:09:43;;;;;;;32.93;11.87;;;;;;;14.29;69.20;97278.81;5006077;28;20281;-75
2023/10/18 08:14:57;;;;;;;26.40;10.27;;;;;;;14.14;69.65;97277.03;5005390;28;20227;-72
2023/10/18 08:22:47;;;;;;;22.23;7.53;;;;;;;14.49;68.55;97288.94;5005658;28;20745;-71
2023/10/18 08:25:24;;;;;;;21.70;7.67;;;;;;;14.28;69.08;97290.16;5006139;28;20311;-70
2023/10/18 08:27:52;;;;;;;18.97;6.07;;;;;;;14.20;69.85;97292.31;5005598;28;20272;-72
2023/10/18 08:31:02;;;;;;;19.97;6.57;;;;;;;14.52;68.84;97293.16;5004243;28;20638;-71
2023/10/18 08:33:26;;;;;;;22.07;8.40;;;;;;;15.08;67.90;97276.78;5004553;28;20241;-69
2023/10/18 08:35:58;;;;;;;25.87;8.03;;;;;;;15.41;66.86;97274.75;5004033;28;20195;-73
2023/10/18 08:38:28;;;;;;;14.33;4.57;;;;;;;15.04;66.31;97263.09;5006081;28;20385;-70
2023/10/18 08:41:13;;;;;;;20.10;6.73;;;;;;;15.52;65.10;97269.72;5003958;28;20194;-71
2023/10/18 08:43:57;;;;;;;16.17;4.57;;;;;;;15.38;64.55;97280.16;5005821;28;20203;-78
2023/10/18 08:46:26;;;;;;;13.53;4.77;;;;;;;15.35;65.45;97285.56;5004625;28;20764;-69
2023/10/18 08:48:55;;;;;;;19.03;5.47;;;;;;;15.45;64.73;97289.34;5005625;28;20184;-71
2023/10/18 08:51:28;;;;;;;19.70;5.97;;;;;;;15.54;64.71;97290.53;5006138;28;20720;-68
2023/10/18 08:53:57;;;;;;;12.17;4.07;;;;;;;15.59;64.25;97281.47;5005756;28;20246;-71
2023/10/18 08:56:29;;;;;;;28.03;7.70;;;;;;;16.02;63.69;97285.69;5007735;28;20205;-70
2023/10/18 08:58:58;;;;;;;24.07;9.03;;;;;;;15.79;63.85;97288.91;5008829;28;20916;-69
2023/10/18 09:01:25;;;;;;;17.33;5.93;;;;;;;16.12;63.99;97285.94;5009038;28;20218;-70
2023/10/18 09:03:55;;;;;;;14.70;4.67;;;;;;;16.33;63.32;97291.56;4995038;28;20195;-75
2023/10/18 09:06:23;;;;;;;12.60;4.90;;;;;;;16.43;63.28;97296.09;5002784;28;20192;-70
2023/10/18 09:09:10;;;;;;;19.37;5.80;;;;;;;16.66;62.43;97292.03;4999176;28;20195;-72
2023/10/18 09:11:47;;;;;;;15.57;5.57;;;;;;;16.11;62.89;97230.25;5001570;28;20218;-73
2023/10/18 09:14:15;;;;;;;20.27;6.47;;;;;;;16.52;63.69;97299.94;5007166;28;20228;-69
2023/10/18 09:16:47;;;;;;;17.67;5.83;;;;;;;16.66;62.89;97299.88;5000375;28;20212;-69
2023/10/18 09:19:14;;;;;;;27.30;8.83;;;;;;;16.74;62.29;97302.81;5008415;28;20246;-69
2023/10/18 09:24:11;;;;;;;20.60;6.20;;;;;;;16.36;62.75;97239.09;5028312;28;20682;-69
2023/10/18 09:26:42;;;;;;;19.97;6.37;;;;;;;16.65;62.84;97285.13;5028432;28;20200;-71
2023/10/18 09:29:10;;;;;;;19.70;5.23;;;;;;;16.15;61.70;97229.13;5028513;28;20191;-74
2023/10/18 09:32:03;;;;;;;13.27;4.67;;;;;;;16.44;62.15;97283.88;5026766;28;20629;-69
2023/10/18 09:34:33;;;;;;;12.70;5.53;;;;;;;16.23;61.46;97266.03;5029019;28;20258;-69
2023/10/18 09:37:04;;;;;;;13.47;4.73;;;;;;;16.21;62.11;97278.38;5026208;28;20218;-70
2023/10/18 09:39:43;;;;;;;14.00;5.07;;;;;;;16.42;62.30;97280.53;5027158;28;20252;-69
2023/10/18 09:42:15;;;;;;;15.40;5.43;;;;;;;16.54;61.31;97275.38;5027834;28;20257;-72
2023/10/18 09:44:43;;;;;;;15.47;5.13;;;;;;;16.24;60.43;97283.38;5028324;28;20310;-68
2023/10/18 09:47:10;;;;;;;18.53;5.60;;;;;;;16.03;61.20;97266.47;5028278;28;20194;-69
2023/10/18 09:49:40;;;;;;;14.03;4.40;;;;;;;15.96;61.99;97273.03;5028573;28;20209;-69
2023/10/18 09:52:11;;;;;;;13.43;4.50;;;;;;;15.84;62.53;97263.38;5028552;28;20518;-70
2023/10/18 09:54:51;;;;;;;15.47;5.77;;;;;;;16.17;62.22;97276.06;5028523;28;20581;-72
2023/10/18 09:57:23;;;;;;;24.60;7.97;;;;;;;16.28;60.59;97279.63;5026315;28;20222;-69
2023/10/18 09:59:55;;;;;;;24.73;6.23;;;;;;;16.19;60.70;97266.34;5027700;28;20198;-76
2023/10/18 10:02:24;;;;;;;26.53;8.13;;;;;;;16.35;59.64;97258.31;5025961;28;20218;-75
2023/10/18 10:04:52;;;;;;;15.47;5.20;;;;;;;16.54;59.94;97274.53;5028126;28;20198;-69
2023/10/18 10:07:39;;;;;;;15.77;5.60;;;;;;;16.37;61.37;97272.13;5027447;28;20637;-74
2023/10/18 10:10:08;;;;;;;26.03;7.43;;;;;;;16.49;61.79;97260.88;5028147;28;20274;-70
2023/10/18 10:12:36;;;;;;;18.67;5.80;;;;;;;16.76;61.51;97253.84;5028028;28;20215;-70
2023/10/18 10:15:13;;;;;;;20.23;5.77;;;;;;;16.93;60.88;97254.41;5027919;28;20234;-72
2023/10/18 10:17:45;;;;;;;15.97;5.60;;;;;;;16.86;60.31;97254.91;5027689;28;20223;-71
2023/10/18 10:20:14;;;;;;;13.17;4.47;;;;;;;17.06;59.87;97246.56;5027320;28;20204;-70
2023/10/18 10:22:43;;;;;;;18.57;6.13;;;;;;;16.95;59.67;97228.97;5042825;28;20297;-69
2023/10/18 10:25:19;;;;;;;24.97;7.90;;;;;;;17.13;59.67;97260.06;5027478;28;20203;-69
2023/10/18 10:28:14;;;;;;;16.87;5.37;;;;;;;17.08;59.55;97257.78;5026344;28;20246;-70
2023/10/18 10:30:45;;;;;;;15.63;5.13;;;;;;;16.90;60.44;97245.91;5027679;28;20199;-69
2023/10/18 10:33:12;;;;;;;22.10;7.10;;;;;;;16.81;59.71;97241.31;5026868;28;20296;-70
2023/10/18 10:35:46;;;;;;;15.47;4.60;;;;;;;16.72;60.85;97250.63;5026419;28;20196;-72
2023/10/18 10:38:13;;;;;;;13.10;4.63;;;;;;;16.57;61.75;97253.44;5026862;28;20247;-69
2023/10/18 10:40:48;;;;;;;28.70;8.30;;;;;;;16.32;61.12;97232.41;5026813;28;20210;-66
2023/10/18 10:43:19;;;;;;;20.50;6.37;;;;;;;16.51;60.83;97243.34;5026751;28;20564;-70
2023/10/18 10:48:18;;;;;;;16.03;4.47;;;;;;;15.72;63.21;97253.69;5027524;28;20306;-72
2023/10/18 10:50:52;;;;;;;14.57;4.00;;;;;;;15.98;62.01;97257.25;5026693;28;20203;-69
2023/10/18 10:53:34;;;;;;;26.70;7.43;;;;;;;15.94;61.71;97246.16;5026932;28;20198;-70
2023/10/18 10:56:19;;;;;;;19.73;5.23;;;;;;;16.07;61.31;97249.66;5027086;28;20200;-70
2023/10/18 10:59:03;;;;;;;19.93;5.53;;;;;;;16.09;62.21;97250.38;5026511;28;20246;-74
2023/10/18 11:01:39;;;;;;;26.67;6.87;;;;;;;16.30;61.34;97251.63;5026974;28;20229;-70
2023/10/18 11:04:29;;;;;;;21.33;6.13;;;;;;;16.39;60.88;97241.50;5026929;28;20290;-72
2023/10/18 11:07:01;;;;;;;20.10;7.10;;;;;;;16.02;61.64;97241.28;5026355;28;20931;-70
2023/10/18 11:09:33;;;;;;;24.03;6.60;;;;;;;16.08;61.35;97233.06;5025525;28;20646;-74
2023/10/18 11:12:08;;;;;;;22.40;6.13;;;;;;;16.02;60.69;97228.22;5025797;28;20203;-72
2023/10/18 11:14:36;;;;;;;13.03;4.03;;;;;;;15.99;61.16;97230.22;5027096;28;20260;-71
2023/10/18 11:19:41;;;;;;;20.07;6.73;;;;;;;15.79;61.71;97233.22;5025846;28;20186;-71
2023/10/18 11:22:11;;;;;;;14.43;4.50;;;;;;;15.87;61.25;97228.34;5026456;28;20770;-71
2023/10/18 11:24:39;;;;;;;13.40;4.50;;;;;;;15.56;62.32;97242.50;5026649;28;20195;-69
2023/10/18 11:27:08;;;;;;;22.73;5.53;;;;;;;15.77;62.18;97219.44;5026455;28;20822;-72
2023/10/18 11:29:39;;;;;;;22.40;6.20;;;;;;;15.79;62.09;97230.63;5026163;28;20188;-73
2023/10/18 11:32:07;;;;;;;14.37;4.53;;;;;;;15.69;61.38;97227.75;5026607;28;20197;-71
2023/10/18 11:34:43;;;;;;;12.90;4.27;;;;;;;15.81;60.88;97231.34;5041464;28;20198;-71
2023/10/18 11:37:34;;;;;;;16.13;5.00;;;;;;;15.56;61.53;97207.75;5026298;28;20245;-71
2023/10/18 11:40:18;;;;;;;18.17;5.20;;;;;;;15.56;62.49;97215.59;5026400;28;20202;-70
2023/10/18 11:43:08;;;;;;;24.93;8.27;;;;;;;15.90;62.39;97222.94;5024373;28;20224;-70
2023/10/18 11:45:37;;;;;;;19.60;6.00;;;;;;;16.14;61.46;97223.97;5026496;28;20274;-71
2023/10/18 11:48:11;;;;;;;12.50;4.33;;;;;;;16.10;59.56;97218.13;5026367;28;20253;-74
2023/10/18 11:50:39;;;;;;;19.77;5.70;;;;;;;15.97;59.12;97219.03;5025809;28;20601;-72
2023/10/18 11:53:17;;;;;;;13.87;4.80;;;;;;;16.08;59.92;97208.69;5024446;28;20197;-72
2023/10/18 11:56:08;;;;;;;22.70;6.53;;;;;;;16.12;61.32;97204.94;5025856;28;20659;-72
2023/10/18 11:58:35;;;;;;;20.50;5.83;;;;;;;16.22;60.77;97206.88;5025833;28;20247;-69
2023/10/18 12:01:17;;;;;;;19.13;5.90;;;;;;;16.43;59.94;97206.38;5025909;28;20214;-69
2023/10/18 12:03:48;;;;;;;24.90;6.30;;;;;;;16.25;59.89;97184.94;5025802;28;20598;-71
2023/10/18 12:06:20;;;;;;;19.17;5.67;;;;;;;15.90;59.86;97152.44;5026239;28;20273;-73
2023/10/18 12:09:07;;;;;;;20.93;5.70;;;;;;;16.39;59.22;97205.75;5025601;28;20291;-73
2023/10/18 12:11:35;;;;;;;23.50;7.77;;;;;;;16.26;59.41;97173.50;5025728;28;20210;-70
2023/10/18 12:14:04;;;;;;;25.87;6.53;;;;;;;16.29;58.98;97155.03;5025324;28;20268;-70
2023/10/18 12:16:34;;;;;;;15.80;5.03;;;;;;;16.43;58.77;97203.75;5025701;28;20209;-72
2023/10/18 12:19:02;;;;;;;15.97;4.97;;;;;;;16.44;58.01;97211.53;5025606;28;20753;-71
2023/10/18 12:21:32;;;;;;;19.03;4.97;;;;;;;16.19;58.22;97188.78;5025714;28;20743;-73
2023/10/18 12:24:02;;;;;;;13.60;4.43;;;;;;;16.19;58.09;97209.69;5026112;28;20219;-69
2023/10/18 12:26:37;;;;;;;12.67;4.60;;;;;;;16.02;58.36;97204.72;5025378;28;20201;-69
2023/10/18 12:29:06;;;;;;;29.33;8.17;;;;;;;15.59;59.79;97231.03;5026300;28;20200;-71
2023/10/18 12:31:39;;;;;;;20.13;6.03;;;;;;;15.52;59.21;97208.88;5029279;28;20552;-73
2023/10/18 12:34:08;;;;;;;26.30;7.27;;;;;;;15.73;59.81;97215.34;5029730;28;20634;-69
2023/10/18 12:36:38;;;;;;;20.10;6.03;;;;;;;15.90;59.34;97195.06;5028659;28;20209;-73
2023/10/18 12:39:09;;;;;;;18.67;5.23;;;;;;;16.00;59.46;97210.97;5027610;28;20222;-70